Macarthur, Pennsylvania
Current Conditions -  °F | °C
As of 4:51 PM on Wednesday 22 Oct 2014 (Local Time) from KPIT Reporting Station
Overcast Overcast  
Wind Chill: 44°   Ceiling: 1900
Heat Index: 49°   Visibility: 10mi
Dew Point: 41°   Wind: 13mph
Humidity: 74%   Direction: 330°NNW
Pressure: 30.17"   Gusts: NA
Location:  40.5921°N, 80.3191°W
Report Text: KPIT 222051Z 33011KT 10SM OVC019 09/05 A3017 RMK AO2 SLP226 T00940050 50001
Loading
Personal Weather Stations






























Interactive Weather Map
Tropical Storm Tracking
New forecast layout! Learn more

10-Day Weather Forecast

Advertisements
Track Severe Weather on mobile